Aberdeen, SD

1:20 PM CDT on March 27, 2015 (GMT -0500)
Simmons | | Change Station
CLOSE
Current Station
Personal Weather Station
Location: Aberdeen, SD
Elevation: 1312 ft
Nearby Weather Stations

Elev 1312 ft 45.45 °N, 98.49 °W | Updated 10 minutes ago

Overcast
Overcast
32.0 °F
Feels Like 28 °F
N
3.7
Wind Variable Wind from South

Today
High -- | Low -- °F
--% Chance of Precip.
Yesterday
High -- | Low -- °F
Precip. -- in
7:24 AM 7:55 PM
First Quarter, 54% visible
Pressure 30.19 in
Visibility 9.0 miles
Clouds Mostly Cloudy 3800 ft
Overcast 4700 ft
Windchill 28 °F
Dew Point 23 °F
Humidity 68%
Rainfall 0.00 in
Snow Depth Not available.
UV 2 out of 12
Pollen .40 out of 12
Air Quality Not available.
Flu Activity Not available.
METAR KABR 271753Z AUTO 18012KT 9SM BKN038 OVC047 00/M08 A3013 RMK AO2 SLP221 T00001083 10000 21078 58027

More Conditions Fewer Conditions

Pressure 30.19 in
Visibility 9.0 miles
Clouds Mostly Cloudy 3800 ft
Overcast 4700 ft
Windchill 28 °F
Dew Point 23 °F
Humidity 68%
Rainfall 0.00 in
Snow Depth Not available.
UV 2 out of 12
Pollen .40 out of 12
Air Quality Not available.
Flu Activity Not available.
METAR KABR 271753Z AUTO 18012KT 9SM BKN038 OVC047 00/M08 A3013 RMK AO2 SLP221 T00001083 10000 21078 58027

More Conditions Fewer Conditions

10-Day Weather Forecast

Almanac

Astronomy

Mar. 27, 2015 Rise Set
Actual Time
Civil Twilight
Nautical Twilight
Astronomical Twilight
Moon
Length of Visible Light
Length of Day
Tomorrow will be .
, % of the Moon is Illuminated

Today's Extremes

State Highs State Lows

Community

WunderPhotos

Upload Photos

1,808,775 photos uploaded!

WunderBlogs® & News

Nearby

Air Quality

  Air Quality AQ Index Pollutant
Not available.

Snow Depth

Station Depth Elevation

Earthquake Activity

City Distance Mag. Time & Date
Minimum magnitude displayed is 2.5.

Coastal Water Temperatures

Place Temperature

Stations

Nearby Weather Stations

Station Location Temp. Windchill Dew Point Humidity Wind Precip. Elev Updated Type